createdAt,value
2023-08-06T00:00:07.405Z,16.83
2023-08-06T00:00:28.486Z,16.82
2023-08-06T00:00:49.557Z,16.82
2023-08-06T00:01:10.680Z,16.83
2023-08-06T00:01:31.744Z,16.82
2023-08-06T00:01:53.069Z,16.82
2023-08-06T00:02:14.235Z,16.81
2023-08-06T00:02:35.294Z,16.81
2023-08-06T00:02:56.572Z,16.81
2023-08-06T00:03:17.849Z,16.82
2023-08-06T00:03:39.074Z,16.81
2023-08-06T00:04:00.330Z,16.82
2023-08-06T00:04:21.370Z,16.82
2023-08-06T00:04:42.423Z,16.81
2023-08-06T00:05:03.534Z,16.82
2023-08-06T00:05:24.799Z,16.82
2023-08-06T00:05:45.872Z,16.81
2023-08-06T00:06:06.924Z,16.82
2023-08-06T00:06:27.999Z,16.81
2023-08-06T00:06:49.039Z,16.82
2023-08-06T00:07:10.100Z,16.81
2023-08-06T00:07:31.177Z,16.82
2023-08-06T00:07:52.236Z,16.82
2023-08-06T00:08:13.290Z,16.81
2023-08-06T00:08:34.442Z,16.81
2023-08-06T00:08:55.510Z,16.81
2023-08-06T00:09:16.556Z,16.81
2023-08-06T00:09:37.610Z,16.80
2023-08-06T00:09:58.675Z,16.80
2023-08-06T00:10:19.786Z,16.80
2023-08-06T00:10:40.860Z,16.80
2023-08-06T00:11:01.918Z,16.79
2023-08-06T00:11:22.977Z,16.80
2023-08-06T00:11:44.050Z,16.79
2023-08-06T00:12:05.178Z,16.79
2023-08-06T00:12:26.226Z,16.79
2023-08-06T00:12:47.295Z,16.79
2023-08-06T00:13:08.381Z,16.79
2023-08-06T00:13:29.489Z,16.79
2023-08-06T00:13:50.570Z,16.79
2023-08-06T00:14:11.642Z,16.80
2023-08-06T00:14:32.690Z,16.79
2023-08-06T00:14:53.747Z,16.79
2023-08-06T00:15:14.802Z,16.79
2023-08-06T00:15:35.904Z,16.80
2023-08-06T00:15:57.196Z,16.79
2023-08-06T00:16:18.235Z,16.79
2023-08-06T00:16:39.320Z,16.78
2023-08-06T00:17:00.406Z,16.78
2023-08-06T00:17:21.533Z,16.78
2023-08-06T00:17:42.645Z,16.78
2023-08-06T00:18:03.727Z,16.78
2023-08-06T00:18:24.898Z,16.79
2023-08-06T00:18:45.970Z,16.78
2023-08-06T00:19:07.035Z,16.78
2023-08-06T00:19:28.100Z,16.78
2023-08-06T00:19:49.141Z,16.78
2023-08-06T00:20:10.229Z,16.78
2023-08-06T00:20:31.287Z,16.78
2023-08-06T00:20:52.583Z,16.78
2023-08-06T00:21:13.854Z,16.78
2023-08-06T00:21:34.909Z,16.78
2023-08-06T00:21:55.974Z,16.78
2023-08-06T00:22:17.054Z,16.78
2023-08-06T00:22:38.122Z,16.78
2023-08-06T00:22:59.249Z,16.76
2023-08-06T00:23:20.348Z,16.77
2023-08-06T00:23:41.432Z,16.77
2023-08-06T00:24:02.497Z,16.77
2023-08-06T00:24:23.605Z,16.78
2023-08-06T00:24:44.636Z,16.77
2023-08-06T00:25:05.729Z,16.77
2023-08-06T00:25:26.781Z,16.78
2023-08-06T00:25:47.845Z,16.76
2023-08-06T00:26:09.116Z,16.78
2023-08-06T00:26:30.210Z,16.77
2023-08-06T00:26:51.286Z,16.77
2023-08-06T00:27:12.327Z,16.77
2023-08-06T00:27:33.385Z,16.77
2023-08-06T00:27:54.443Z,16.76
2023-08-06T00:28:15.533Z,16.77
2023-08-06T00:28:36.573Z,16.77
2023-08-06T00:28:57.644Z,16.77
2023-08-06T00:29:18.699Z,16.76
2023-08-06T00:29:39.788Z,16.76
2023-08-06T00:30:00.832Z,16.76
2023-08-06T00:30:21.897Z,16.75
2023-08-06T00:30:42.988Z,16.76
2023-08-06T00:31:04.063Z,16.76
2023-08-06T00:31:25.396Z,16.77
2023-08-06T00:31:46.649Z,16.76
2023-08-06T00:32:07.711Z,16.76
2023-08-06T00:32:28.831Z,16.77
2023-08-06T00:32:49.894Z,16.76
2023-08-06T00:33:10.961Z,16.77
2023-08-06T00:33:32.099Z,16.76
2023-08-06T00:33:53.159Z,16.76
2023-08-06T00:34:14.225Z,16.76
2023-08-06T00:34:35.283Z,16.76
2023-08-06T00:34:56.366Z,16.76
2023-08-06T00:35:17.487Z,16.76
2023-08-06T00:35:38.544Z,16.76
2023-08-06T00:35:59.621Z,16.77
2023-08-06T00:36:20.669Z,16.76
2023-08-06T00:36:41.977Z,16.76
2023-08-06T00:37:03.235Z,16.75
2023-08-06T00:37:24.315Z,16.76
2023-08-06T00:37:45.370Z,16.75
2023-08-06T00:38:06.446Z,16.76
2023-08-06T00:38:27.496Z,16.75
2023-08-06T00:38:48.556Z,16.75
2023-08-06T00:39:09.620Z,16.76
2023-08-06T00:39:30.684Z,16.75
2023-08-06T00:39:51.739Z,16.75
2023-08-06T00:40:12.811Z,16.75
2023-08-06T00:40:33.890Z,16.75
2023-08-06T00:40:54.942Z,16.75
2023-08-06T00:41:16.021Z,16.74
2023-08-06T00:41:37.116Z,16.75
2023-08-06T00:41:58.185Z,16.74
2023-08-06T00:42:19.444Z,16.75
2023-08-06T00:42:40.511Z,16.75
2023-08-06T00:43:01.591Z,16.74
2023-08-06T00:43:22.650Z,16.74
2023-08-06T00:43:43.710Z,16.74
2023-08-06T00:44:04.798Z,16.74
2023-08-06T00:44:25.830Z,16.74
2023-08-06T00:44:46.904Z,16.73
2023-08-06T00:45:07.966Z,16.73
2023-08-06T00:45:29.037Z,16.73
2023-08-06T00:45:50.085Z,16.74
2023-08-06T00:46:11.153Z,16.73
2023-08-06T00:46:32.294Z,16.73
2023-08-06T00:46:53.361Z,16.73
2023-08-06T00:47:14.541Z,16.74
2023-08-06T00:47:35.656Z,16.73
2023-08-06T00:47:56.849Z,16.72
2023-08-06T00:48:17.953Z,16.73
2023-08-06T00:48:39.009Z,16.73
2023-08-06T00:49:00.076Z,16.72
2023-08-06T00:49:21.122Z,16.72
2023-08-06T00:49:42.232Z,16.72
2023-08-06T00:50:03.277Z,16.72
2023-08-06T00:50:24.375Z,16.72
2023-08-06T00:50:45.484Z,16.72
2023-08-06T00:51:06.550Z,16.72
2023-08-06T00:51:27.644Z,16.72
2023-08-06T00:51:48.743Z,16.71
2023-08-06T00:52:09.773Z,16.71
2023-08-06T00:52:31.071Z,16.71
2023-08-06T00:52:52.183Z,16.71
2023-08-06T00:53:13.236Z,16.71
2023-08-06T00:53:34.313Z,16.70
2023-08-06T00:53:55.368Z,16.70
2023-08-06T00:54:16.424Z,16.70
2023-08-06T00:54:37.479Z,16.70
2023-08-06T00:54:58.581Z,16.69
2023-08-06T00:55:19.606Z,16.69
2023-08-06T00:55:40.677Z,16.69
2023-08-06T00:56:01.746Z,16.69
2023-08-06T00:56:22.800Z,16.68
2023-08-06T00:56:43.845Z,16.68
2023-08-06T00:57:04.914Z,16.69
2023-08-06T00:57:25.996Z,16.68
2023-08-06T00:57:47.255Z,16.69
2023-08-06T00:58:08.333Z,16.68
2023-08-06T00:58:29.400Z,16.69
2023-08-06T00:58:50.466Z,16.68
2023-08-06T00:59:11.574Z,16.68
2023-08-06T00:59:32.675Z,16.68
2023-08-06T00:59:53.797Z,16.67
2023-08-06T01:00:14.843Z,16.67
2023-08-06T01:00:35.908Z,16.67
2023-08-06T01:00:57.018Z,16.67
2023-08-06T01:01:18.059Z,16.67
2023-08-06T01:01:39.117Z,16.67
2023-08-06T01:02:00.207Z,16.68
2023-08-06T01:02:21.356Z,16.67
2023-08-06T01:02:42.573Z,16.67
2023-08-06T01:03:03.877Z,16.67
2023-08-06T01:03:46.130Z,16.67
2023-08-06T01:04:07.204Z,16.67
2023-08-06T01:04:28.233Z,16.66
2023-08-06T01:04:49.302Z,16.67
2023-08-06T01:05:10.352Z,16.67
2023-08-06T01:05:31.411Z,16.67
2023-08-06T01:05:52.463Z,16.66
2023-08-06T01:06:13.520Z,16.67
2023-08-06T01:06:34.592Z,16.67
2023-08-06T01:06:55.646Z,16.67
2023-08-06T01:07:16.700Z,16.66
2023-08-06T01:07:37.772Z,16.66
2023-08-06T01:07:58.824Z,16.67
2023-08-06T01:08:20.114Z,16.66
2023-08-06T01:08:41.199Z,16.67
2023-08-06T01:09:02.249Z,16.66
2023-08-06T01:09:23.300Z,16.66
2023-08-06T01:09:44.360Z,16.66
2023-08-06T01:10:05.429Z,16.67
2023-08-06T01:10:26.496Z,16.65
2023-08-06T01:10:47.546Z,16.66
2023-08-06T01:11:08.600Z,16.66
2023-08-06T01:11:29.664Z,16.66
2023-08-06T01:11:51.197Z,16.65
2023-08-06T01:12:12.468Z,16.66
2023-08-06T01:12:33.514Z,16.65
2023-08-06T01:12:54.563Z,16.66
2023-08-06T01:13:15.621Z,16.66
2023-08-06T01:13:36.711Z,16.66
2023-08-06T01:13:57.807Z,16.66
2023-08-06T01:14:18.858Z,16.65
2023-08-06T01:14:39.927Z,16.66
2023-08-06T01:15:00.998Z,16.65
2023-08-06T01:15:22.088Z,16.65
2023-08-06T01:15:43.134Z,16.65
2023-08-06T01:16:04.253Z,16.65
2023-08-06T01:16:25.368Z,16.64
2023-08-06T01:16:46.510Z,16.65
2023-08-06T01:17:07.573Z,16.65
2023-08-06T01:17:28.751Z,16.65
2023-08-06T01:17:49.840Z,16.64
2023-08-06T01:18:10.866Z,16.64
2023-08-06T01:18:34.476Z,16.64
2023-08-06T01:19:16.993Z,16.65
2023-08-06T01:19:38.081Z,16.64
2023-08-06T01:19:59.127Z,16.64
2023-08-06T01:20:20.190Z,16.63
2023-08-06T01:20:41.258Z,16.63
2023-08-06T01:21:02.327Z,16.64
2023-08-06T01:21:23.382Z,16.64
2023-08-06T01:21:44.439Z,16.63
2023-08-06T01:22:05.503Z,16.64
2023-08-06T01:22:26.579Z,16.64
2023-08-06T01:22:47.636Z,16.64
2023-08-06T01:23:08.688Z,16.64
2023-08-06T01:23:29.741Z,16.63
2023-08-06T01:23:50.804Z,16.64
2023-08-06T01:24:11.875Z,16.63
2023-08-06T01:24:32.983Z,16.63
2023-08-06T01:24:54.273Z,16.63
2023-08-06T01:25:15.344Z,16.63
2023-08-06T01:25:36.416Z,16.63
2023-08-06T01:25:57.459Z,16.62
2023-08-06T01:26:18.550Z,16.63
2023-08-06T01:26:39.601Z,16.63
2023-08-06T01:27:00.720Z,16.63
2023-08-06T01:27:21.751Z,16.62
2023-08-06T01:27:42.826Z,16.63
2023-08-06T01:28:03.886Z,16.62
2023-08-06T01:28:24.946Z,16.62
2023-08-06T01:28:46.069Z,16.63
2023-08-06T01:29:07.175Z,16.62
2023-08-06T01:29:28.213Z,16.62
2023-08-06T01:29:49.322Z,16.61
2023-08-06T01:30:10.602Z,16.62
2023-08-06T01:30:31.650Z,16.62
2023-08-06T01:30:52.710Z,16.62
2023-08-06T01:31:13.959Z,16.62
2023-08-06T01:31:35.008Z,16.61
2023-08-06T01:31:56.069Z,16.61
2023-08-06T01:32:17.123Z,16.61
2023-08-06T01:32:38.234Z,16.61
2023-08-06T01:32:59.341Z,16.62
2023-08-06T01:33:20.530Z,16.62
2023-08-06T01:33:41.604Z,16.61
2023-08-06T01:34:02.696Z,16.61
2023-08-06T01:34:23.754Z,16.61
2023-08-06T01:34:44.799Z,16.61
2023-08-06T01:35:06.073Z,16.61
2023-08-06T01:35:27.178Z,16.61
2023-08-06T01:35:48.226Z,16.61
2023-08-06T01:36:09.269Z,16.61
2023-08-06T01:36:30.344Z,16.61
2023-08-06T01:36:51.398Z,16.60
2023-08-06T01:37:12.461Z,16.62
2023-08-06T01:37:33.524Z,16.61
2023-08-06T01:37:54.585Z,16.61
2023-08-06T01:38:15.658Z,16.61
2023-08-06T01:38:36.713Z,16.62
2023-08-06T01:38:57.776Z,16.61
2023-08-06T01:39:18.864Z,16.60
2023-08-06T01:39:39.889Z,16.61
2023-08-06T01:40:01.052Z,16.61
2023-08-06T01:40:22.151Z,16.61
2023-08-06T01:40:43.444Z,16.60
2023-08-06T01:41:04.522Z,16.61
2023-08-06T01:41:25.585Z,16.60
2023-08-06T01:41:46.649Z,16.61
2023-08-06T01:42:07.722Z,16.60
2023-08-06T01:42:28.792Z,16.61
2023-08-06T01:42:49.876Z,16.61
2023-08-06T01:43:10.916Z,16.60
2023-08-06T01:43:31.994Z,16.61
2023-08-06T01:43:53.052Z,16.60
2023-08-06T01:44:14.124Z,16.60
2023-08-06T01:44:35.174Z,16.61
2023-08-06T01:44:56.225Z,16.61
2023-08-06T01:45:17.291Z,16.61
2023-08-06T01:45:38.379Z,16.61
2023-08-06T01:45:59.751Z,16.60
2023-08-06T01:46:20.881Z,16.60
2023-08-06T01:46:41.973Z,16.61
2023-08-06T01:47:03.025Z,16.60
2023-08-06T01:47:24.153Z,16.60
2023-08-06T01:47:45.233Z,16.60
2023-08-06T01:48:06.325Z,16.60
2023-08-06T01:48:27.395Z,16.61
2023-08-06T01:48:48.464Z,16.61
2023-08-06T01:49:09.527Z,16.61
2023-08-06T01:49:30.600Z,16.61
2023-08-06T01:49:51.650Z,16.61
2023-08-06T01:50:12.753Z,16.61
2023-08-06T01:50:33.795Z,16.61
2023-08-06T01:50:55.054Z,16.62
2023-08-06T01:51:16.367Z,16.62
2023-08-06T01:51:37.428Z,16.62
2023-08-06T01:51:58.531Z,16.62
2023-08-06T01:52:19.564Z,16.62
2023-08-06T01:52:40.623Z,16.62
2023-08-06T01:53:01.677Z,16.63
2023-08-06T01:53:22.735Z,16.62
2023-08-06T01:53:43.789Z,16.62
2023-08-06T01:54:04.862Z,16.63
2023-08-06T01:54:25.919Z,16.63
2023-08-06T01:54:46.985Z,16.63
2023-08-06T01:55:08.061Z,16.63
2023-08-06T01:55:29.127Z,16.63
2023-08-06T01:55:50.256Z,16.63
2023-08-06T01:56:11.588Z,16.63
2023-08-06T01:56:32.886Z,16.62
2023-08-06T01:56:53.926Z,16.63
2023-08-06T01:57:14.984Z,16.63
2023-08-06T01:57:36.074Z,16.63
2023-08-06T01:57:57.112Z,16.63
2023-08-06T01:58:18.182Z,16.63
2023-08-06T01:58:39.255Z,16.63
2023-08-06T01:59:01.835Z,16.63
2023-08-06T01:59:24.234Z,16.63
2023-08-06T01:59:45.288Z,16.63
2023-08-06T02:00:06.348Z,16.62
2023-08-06T02:00:27.413Z,16.62
2023-08-06T02:00:48.467Z,16.62
2023-08-06T02:01:09.585Z,16.62
2023-08-06T02:01:30.927Z,16.61
2023-08-06T02:01:52.271Z,16.62
2023-08-06T02:02:13.539Z,16.61
2023-08-06T02:02:34.620Z,16.62
2023-08-06T02:02:55.711Z,16.61
2023-08-06T02:03:16.779Z,16.61
2023-08-06T02:03:37.842Z,16.61
2023-08-06T02:03:58.894Z,16.60
2023-08-06T02:04:19.957Z,16.61
2023-08-06T02:04:41.033Z,16.60
2023-08-06T02:05:02.149Z,16.61
2023-08-06T02:05:23.199Z,16.61
2023-08-06T02:05:44.265Z,16.60
2023-08-06T02:06:05.330Z,16.60
2023-08-06T02:06:26.437Z,16.60
2023-08-06T02:06:47.707Z,16.60
2023-08-06T02:07:08.767Z,16.60
2023-08-06T02:07:29.819Z,16.60
2023-08-06T02:07:50.883Z,16.60
2023-08-06T02:08:11.988Z,16.60
2023-08-06T02:08:33.040Z,16.60
2023-08-06T02:08:54.110Z,16.60
2023-08-06T02:09:15.132Z,16.60
2023-08-06T02:09:36.212Z,16.59
2023-08-06T02:09:57.257Z,16.59
2023-08-06T02:10:18.314Z,16.60
2023-08-06T02:10:39.393Z,16.59
2023-08-06T02:11:00.484Z,16.59
2023-08-06T02:11:21.660Z,16.59
2023-08-06T02:11:42.744Z,16.59
2023-08-06T02:12:04.007Z,16.59
2023-08-06T02:12:25.274Z,16.58
2023-08-06T02:12:46.342Z,16.58
2023-08-06T02:13:07.430Z,16.58
2023-08-06T02:13:28.462Z,16.58
2023-08-06T02:13:49.535Z,16.58
2023-08-06T02:14:10.616Z,16.58
2023-08-06T02:14:31.658Z,16.58
2023-08-06T02:14:52.714Z,16.58
2023-08-06T02:15:13.778Z,16.57
2023-08-06T02:15:34.826Z,16.58
2023-08-06T02:15:55.934Z,16.57
2023-08-06T02:16:17.017Z,16.57
2023-08-06T02:16:38.136Z,16.57
2023-08-06T02:16:59.189Z,16.57
2023-08-06T02:17:20.512Z,16.56
2023-08-06T02:17:41.785Z,16.56
2023-08-06T02:18:02.862Z,16.56
2023-08-06T02:18:23.950Z,16.56
2023-08-06T02:18:44.977Z,16.56
2023-08-06T02:19:06.030Z,16.56
2023-08-06T02:19:27.122Z,16.56
2023-08-06T02:19:48.431Z,16.56
2023-08-06T02:20:09.621Z,16.55
2023-08-06T02:20:30.701Z,16.55
2023-08-06T02:20:51.747Z,16.55
2023-08-06T02:21:12.810Z,16.55
2023-08-06T02:21:33.871Z,16.55
2023-08-06T02:21:55.211Z,16.55
2023-08-06T02:22:16.446Z,16.55
2023-08-06T02:22:37.544Z,16.55
2023-08-06T02:22:58.663Z,16.55
2023-08-06T02:23:19.722Z,16.55
2023-08-06T02:23:40.805Z,16.55
2023-08-06T02:24:01.846Z,16.55
2023-08-06T02:24:22.902Z,16.55
2023-08-06T02:24:43.968Z,16.55
2023-08-06T02:25:05.050Z,16.55
2023-08-06T02:25:26.085Z,16.54
2023-08-06T02:25:47.337Z,16.54
2023-08-06T02:26:08.400Z,16.54
2023-08-06T02:26:29.459Z,16.54
2023-08-06T02:26:50.536Z,16.54
2023-08-06T02:27:11.595Z,16.54
2023-08-06T02:27:32.653Z,16.54
2023-08-06T02:27:53.960Z,16.54
2023-08-06T02:28:15.218Z,16.54
2023-08-06T02:28:36.290Z,16.54
2023-08-06T02:28:57.404Z,16.55
2023-08-06T02:29:18.485Z,16.54
2023-08-06T02:29:39.535Z,16.54
2023-08-06T02:30:00.615Z,16.55
2023-08-06T02:30:21.668Z,16.54
2023-08-06T02:30:42.719Z,16.55
2023-08-06T02:31:03.864Z,16.54
2023-08-06T02:31:24.978Z,16.54
2023-08-06T02:31:46.097Z,16.54
2023-08-06T02:32:07.187Z,16.55
2023-08-06T02:32:28.330Z,16.55
2023-08-06T02:32:49.441Z,16.55
2023-08-06T02:33:10.530Z,16.55
2023-08-06T02:33:31.653Z,16.55
2023-08-06T02:33:52.684Z,16.54
2023-08-06T02:34:13.754Z,16.54
2023-08-06T02:34:34.824Z,16.54
2023-08-06T02:34:55.917Z,16.54
2023-08-06T02:35:16.998Z,16.54
2023-08-06T02:35:38.049Z,16.55
2023-08-06T02:35:59.101Z,16.54
2023-08-06T02:36:20.209Z,16.54
2023-08-06T02:36:41.258Z,16.54
2023-08-06T02:37:02.351Z,16.54
2023-08-06T02:37:23.398Z,16.54
2023-08-06T02:37:44.538Z,16.54
2023-08-06T02:38:05.608Z,16.54
2023-08-06T02:38:26.873Z,16.54
2023-08-06T02:38:47.974Z,16.53
2023-08-06T02:39:09.032Z,16.54
2023-08-06T02:39:30.108Z,16.53
2023-08-06T02:39:51.149Z,16.53
2023-08-06T02:40:12.212Z,16.53
2023-08-06T02:40:33.317Z,16.54
2023-08-06T02:40:54.366Z,16.53
2023-08-06T02:41:15.424Z,16.53
2023-08-06T02:41:36.482Z,16.53
2023-08-06T02:41:57.559Z,16.53
2023-08-06T02:42:18.597Z,16.53
2023-08-06T02:42:39.652Z,16.52
2023-08-06T02:43:00.732Z,16.53
2023-08-06T02:43:21.782Z,16.52
2023-08-06T02:43:42.884Z,16.52
2023-08-06T02:44:04.007Z,16.52
2023-08-06T02:44:25.061Z,16.52
2023-08-06T02:44:46.109Z,16.52
2023-08-06T02:45:07.166Z,16.52
2023-08-06T02:45:28.290Z,16.52
2023-08-06T02:45:49.392Z,16.52
2023-08-06T02:46:10.490Z,16.52
2023-08-06T02:46:31.567Z,16.52
2023-08-06T02:46:52.620Z,16.51
2023-08-06T02:47:13.665Z,16.52
2023-08-06T02:47:34.768Z,16.52
2023-08-06T02:47:55.840Z,16.52
2023-08-06T02:48:16.864Z,16.52
2023-08-06T02:48:37.950Z,16.52
2023-08-06T02:48:59.047Z,16.52
2023-08-06T02:49:20.317Z,16.52
2023-08-06T02:49:41.376Z,16.52
2023-08-06T02:50:02.426Z,16.51
2023-08-06T02:50:23.492Z,16.52
2023-08-06T02:50:44.553Z,16.52
2023-08-06T02:51:05.621Z,16.52
2023-08-06T02:51:26.679Z,16.52
2023-08-06T02:51:47.748Z,16.52
2023-08-06T02:52:08.791Z,16.52
2023-08-06T02:52:29.871Z,16.52
2023-08-06T02:52:50.909Z,16.52
2023-08-06T02:53:11.994Z,16.52
2023-08-06T02:53:33.073Z,16.51
2023-08-06T02:53:54.135Z,16.51
2023-08-06T02:54:15.235Z,16.52
2023-08-06T02:54:36.336Z,16.52
2023-08-06T02:54:57.380Z,16.52
2023-08-06T02:55:18.459Z,16.51
2023-08-06T02:55:39.549Z,16.51
2023-08-06T02:56:00.595Z,16.51
2023-08-06T02:56:21.654Z,16.51
2023-08-06T02:56:42.722Z,16.52
2023-08-06T02:57:03.778Z,16.51
2023-08-06T02:57:24.844Z,16.51
2023-08-06T02:57:45.913Z,16.51
2023-08-06T02:58:07.019Z,16.51
2023-08-06T02:58:28.066Z,16.51
2023-08-06T02:58:49.180Z,16.51
2023-08-06T02:59:10.247Z,16.50
2023-08-06T02:59:31.532Z,16.51
2023-08-06T02:59:52.664Z,16.49
2023-08-06T03:00:13.701Z,16.50
2023-08-06T03:00:34.756Z,16.50
2023-08-06T03:00:55.825Z,16.50
2023-08-06T03:01:17.006Z,16.50
2023-08-06T03:01:38.067Z,16.49
2023-08-06T03:01:59.126Z,16.50
2023-08-06T03:02:20.190Z,16.50
2023-08-06T03:02:41.279Z,16.50
2023-08-06T03:03:02.306Z,16.50
2023-08-06T03:03:23.376Z,16.50
2023-08-06T03:03:44.463Z,16.49
2023-08-06T03:04:05.501Z,16.49
2023-08-06T03:04:26.590Z,16.50
2023-08-06T03:04:47.731Z,16.49
2023-08-06T03:05:08.850Z,16.49
2023-08-06T03:05:29.903Z,16.49
2023-08-06T03:05:50.998Z,16.49
2023-08-06T03:06:12.063Z,16.49
2023-08-06T03:06:33.140Z,16.48
2023-08-06T03:06:54.249Z,16.48
2023-08-06T03:07:15.318Z,16.47
2023-08-06T03:07:36.367Z,16.48
2023-08-06T03:07:57.422Z,16.48
2023-08-06T03:08:18.535Z,16.48
2023-08-06T03:08:39.563Z,16.46
2023-08-06T03:09:00.637Z,16.47
2023-08-06T03:09:21.690Z,16.46
2023-08-06T03:09:42.750Z,16.46
2023-08-06T03:10:03.827Z,16.46
2023-08-06T03:10:24.927Z,16.46
2023-08-06T03:10:46.010Z,16.46
2023-08-06T03:11:07.058Z,16.45
2023-08-06T03:11:28.122Z,16.45
2023-08-06T03:11:49.264Z,16.45
2023-08-06T03:12:10.341Z,16.45
2023-08-06T03:12:31.404Z,16.45
2023-08-06T03:12:52.504Z,16.45
2023-08-06T03:13:13.518Z,16.44
2023-08-06T03:13:34.571Z,16.45
2023-08-06T03:13:55.628Z,16.44
2023-08-06T03:14:16.689Z,16.44
2023-08-06T03:14:37.759Z,16.44
2023-08-06T03:14:58.811Z,16.44
2023-08-06T03:15:19.906Z,16.43
2023-08-06T03:15:41.001Z,16.43
2023-08-06T03:16:02.075Z,16.43
2023-08-06T03:16:23.177Z,16.43
2023-08-06T03:16:44.279Z,16.43
2023-08-06T03:17:05.344Z,16.43
2023-08-06T03:17:26.414Z,16.42
2023-08-06T03:17:47.527Z,16.43
2023-08-06T03:18:08.556Z,16.42
2023-08-06T03:18:29.614Z,16.42
2023-08-06T03:18:50.693Z,16.42
2023-08-06T03:19:11.726Z,16.41
2023-08-06T03:19:32.791Z,16.42
2023-08-06T03:19:53.855Z,16.42
2023-08-06T03:20:14.917Z,16.41
2023-08-06T03:20:36.021Z,16.40
2023-08-06T03:20:57.119Z,16.40
2023-08-06T03:21:18.190Z,16.41
2023-08-06T03:21:39.271Z,16.40
2023-08-06T03:22:00.315Z,16.40
2023-08-06T03:22:21.382Z,16.40
2023-08-06T03:22:42.455Z,16.41
2023-08-06T03:23:03.496Z,16.39
2023-08-06T03:23:24.557Z,16.40
2023-08-06T03:23:45.612Z,16.40
2023-08-06T03:24:06.738Z,16.40
2023-08-06T03:24:27.765Z,16.40
2023-08-06T03:24:48.843Z,16.39
2023-08-06T03:25:09.912Z,16.40
2023-08-06T03:25:30.955Z,16.38
2023-08-06T03:25:52.055Z,16.39
2023-08-06T03:26:13.344Z,16.39
2023-08-06T03:26:34.469Z,16.38
2023-08-06T03:26:55.534Z,16.39
2023-08-06T03:27:16.573Z,16.39
2023-08-06T03:27:37.631Z,16.39
2023-08-06T03:27:58.687Z,16.39
2023-08-06T03:28:19.749Z,16.39
2023-08-06T03:28:40.800Z,16.39
2023-08-06T03:29:01.869Z,16.38
2023-08-06T03:29:23.366Z,16.38
2023-08-06T03:29:44.584Z,16.39
2023-08-06T03:30:05.665Z,16.38
2023-08-06T03:30:26.725Z,16.38
2023-08-06T03:30:47.813Z,16.38
2023-08-06T03:31:09.128Z,16.38
2023-08-06T03:31:30.274Z,16.38
2023-08-06T03:31:51.533Z,16.38
2023-08-06T03:32:12.736Z,16.37
2023-08-06T03:32:33.901Z,16.37
2023-08-06T03:32:54.996Z,16.37
2023-08-06T03:33:16.051Z,16.37
2023-08-06T03:33:37.105Z,16.37
2023-08-06T03:33:58.190Z,16.37
2023-08-06T03:34:19.228Z,16.36
2023-08-06T03:34:40.290Z,16.36
2023-08-06T03:35:01.360Z,16.37
2023-08-06T03:35:22.402Z,16.36
2023-08-06T03:35:43.463Z,16.36
2023-08-06T03:36:04.581Z,16.37
2023-08-06T03:36:25.658Z,16.36
2023-08-06T03:36:46.910Z,16.37
2023-08-06T03:37:07.976Z,16.37
2023-08-06T03:37:29.038Z,16.36
2023-08-06T03:37:50.094Z,16.36
2023-08-06T03:38:11.154Z,16.36
2023-08-06T03:38:32.210Z,16.36
2023-08-06T03:38:53.262Z,16.36
2023-08-06T03:39:14.324Z,16.36
2023-08-06T03:39:35.403Z,16.35
2023-08-06T03:39:56.442Z,16.36
2023-08-06T03:40:17.497Z,16.36
2023-08-06T03:40:38.555Z,16.36
2023-08-06T03:40:59.608Z,16.35
2023-08-06T03:41:20.669Z,16.35
2023-08-06T03:41:41.764Z,16.35
2023-08-06T03:42:02.864Z,16.35
2023-08-06T03:42:23.920Z,16.35
2023-08-06T03:42:44.985Z,16.35
2023-08-06T03:43:06.082Z,16.35
2023-08-06T03:43:27.137Z,16.35
2023-08-06T03:43:48.187Z,16.36
2023-08-06T03:44:09.243Z,16.35
2023-08-06T03:44:30.303Z,16.35
2023-08-06T03:44:51.364Z,16.35
2023-08-06T03:45:12.420Z,16.35
2023-08-06T03:45:33.504Z,16.34
2023-08-06T03:45:54.580Z,16.35
2023-08-06T03:46:15.665Z,16.35
2023-08-06T03:46:36.704Z,16.35
2023-08-06T03:46:57.852Z,16.35
2023-08-06T03:47:19.107Z,16.34
2023-08-06T03:47:40.213Z,16.35
2023-08-06T03:48:01.256Z,16.34
2023-08-06T03:48:22.317Z,16.34
2023-08-06T03:48:43.382Z,16.34
2023-08-06T03:49:04.470Z,16.34
2023-08-06T03:49:25.501Z,16.34
2023-08-06T03:49:46.550Z,16.34
2023-08-06T03:50:07.693Z,16.34
2023-08-06T03:50:28.714Z,16.34
2023-08-06T03:50:49.788Z,16.35
2023-08-06T03:51:10.851Z,16.34
2023-08-06T03:51:31.920Z,16.34
2023-08-06T03:51:53.134Z,16.34
2023-08-06T03:52:14.445Z,16.34
2023-08-06T03:52:35.561Z,16.35
2023-08-06T03:52:56.617Z,16.35
2023-08-06T03:53:17.716Z,16.35
2023-08-06T03:53:38.745Z,16.35
2023-08-06T03:53:59.816Z,16.36
2023-08-06T03:54:20.862Z,16.35
2023-08-06T03:54:41.918Z,16.34
2023-08-06T03:55:02.997Z,16.34
2023-08-06T03:55:24.042Z,16.35
2023-08-06T03:55:45.114Z,16.34
2023-08-06T03:56:06.177Z,16.35
2023-08-06T03:56:27.232Z,16.34
2023-08-06T03:56:48.283Z,16.34
2023-08-06T03:57:09.336Z,16.35
2023-08-06T03:57:30.443Z,16.34
2023-08-06T03:57:51.534Z,16.33
2023-08-06T03:58:12.592Z,16.34
2023-08-06T03:58:33.643Z,16.33
2023-08-06T03:58:54.710Z,16.33
2023-08-06T03:59:15.775Z,16.33
2023-08-06T03:59:36.816Z,16.33
2023-08-06T03:59:57.888Z,16.33
2023-08-06T04:00:18.952Z,16.32
2023-08-06T04:00:40.115Z,16.32
2023-08-06T04:01:01.425Z,16.32
2023-08-06T04:01:22.496Z,16.30
2023-08-06T04:01:43.540Z,16.30
2023-08-06T04:02:04.612Z,16.30
2023-08-06T04:02:25.664Z,16.30
2023-08-06T04:02:47.065Z,16.30
2023-08-06T04:03:08.275Z,16.28
2023-08-06T04:03:29.435Z,16.29
2023-08-06T04:03:50.620Z,16.28
2023-08-06T04:04:11.672Z,16.27
2023-08-06T04:04:32.778Z,16.27
2023-08-06T04:04:53.818Z,16.27
2023-08-06T04:05:14.874Z,16.26
2023-08-06T04:05:35.959Z,16.25
2023-08-06T04:05:57.115Z,16.25
2023-08-06T04:06:18.191Z,16.24
2023-08-06T04:06:39.267Z,16.25
2023-08-06T04:07:00.323Z,16.24
2023-08-06T04:07:21.375Z,16.24
2023-08-06T04:07:42.449Z,16.24
2023-08-06T04:08:03.728Z,16.24
2023-08-06T04:08:24.989Z,16.23
2023-08-06T04:08:46.055Z,16.23
2023-08-06T04:09:07.191Z,16.23
2023-08-06T04:09:28.240Z,16.23
2023-08-06T04:09:49.307Z,16.22
2023-08-06T04:10:10.361Z,16.22
2023-08-06T04:10:31.440Z,16.22
2023-08-06T04:10:52.467Z,16.22
2023-08-06T04:11:13.538Z,16.20
2023-08-06T04:11:34.613Z,16.21
2023-08-06T04:11:55.648Z,16.19
2023-08-06T04:12:16.819Z,16.20
2023-08-06T04:12:37.928Z,16.19
2023-08-06T04:12:58.971Z,16.19
2023-08-06T04:13:20.302Z,16.19
2023-08-06T04:13:41.544Z,16.18
2023-08-06T04:14:02.606Z,16.18
2023-08-06T04:14:23.663Z,16.17
2023-08-06T04:14:44.725Z,16.17
2023-08-06T04:15:05.815Z,16.17
2023-08-06T04:15:26.890Z,16.16
2023-08-06T04:15:47.932Z,16.16
2023-08-06T04:16:09.076Z,16.17
2023-08-06T04:16:30.190Z,16.14
2023-08-06T04:16:51.260Z,16.15
2023-08-06T04:17:12.311Z,16.14
2023-08-06T04:17:33.406Z,16.14
2023-08-06T04:17:54.507Z,16.13
2023-08-06T04:18:15.587Z,16.13
2023-08-06T04:18:36.659Z,16.13
2023-08-06T04:18:57.924Z,16.13
2023-08-06T04:19:19.034Z,16.13
2023-08-06T04:19:40.154Z,16.13
2023-08-06T04:20:01.243Z,16.13
2023-08-06T04:20:22.316Z,16.13
2023-08-06T04:20:43.377Z,16.13
2023-08-06T04:21:04.468Z,16.13
2023-08-06T04:21:25.516Z,16.12
2023-08-06T04:21:46.586Z,16.13
2023-08-06T04:22:07.635Z,16.12
2023-08-06T04:22:28.698Z,16.12
2023-08-06T04:22:49.753Z,16.12
2023-08-06T04:23:10.813Z,16.12
2023-08-06T04:23:31.860Z,16.12
2023-08-06T04:23:52.953Z,16.12
2023-08-06T04:24:14.056Z,16.12
2023-08-06T04:24:35.115Z,16.11
2023-08-06T04:24:56.172Z,16.11
2023-08-06T04:25:17.225Z,16.11
2023-08-06T04:25:38.292Z,16.11
2023-08-06T04:25:59.358Z,16.11
2023-08-06T04:26:20.431Z,16.11
2023-08-06T04:26:41.495Z,16.11
2023-08-06T04:27:02.567Z,16.11
2023-08-06T04:27:23.633Z,16.11
2023-08-06T04:27:44.711Z,16.12
2023-08-06T04:28:05.765Z,16.11
2023-08-06T04:28:26.822Z,16.10
2023-08-06T04:28:47.886Z,16.11
2023-08-06T04:29:09.147Z,16.11
2023-08-06T04:29:30.240Z,16.11
2023-08-06T04:29:51.344Z,16.11
2023-08-06T04:30:12.378Z,16.10
2023-08-06T04:30:33.506Z,16.11
2023-08-06T04:30:54.581Z,16.11
2023-08-06T04:31:15.656Z,16.11
2023-08-06T04:31:36.720Z,16.11
2023-08-06T04:31:57.776Z,16.11
2023-08-06T04:32:18.852Z,16.11